sensor_id;sensor_type;location;lat;lon;timestamp;P1;durP1;ratioP1;P2;durP2;ratioP2
15192;SDS011;7697;51.630;7.484;2023-04-06T00:04:52;10.40;;;7.37;;
15192;SDS011;7697;51.630;7.484;2023-04-06T00:09:53;9.87;;;6.73;;
15192;SDS011;7697;51.630;7.484;2023-04-06T00:14:57;8.53;;;6.33;;
15192;SDS011;7697;51.630;7.484;2023-04-06T00:19:59;10.07;;;6.90;;
15192;SDS011;7697;51.630;7.484;2023-04-06T00:25:01;9.47;;;7.23;;
15192;SDS011;7697;51.630;7.484;2023-04-06T00:30:05;9.40;;;6.70;;
15192;SDS011;7697;51.630;7.484;2023-04-06T00:35:08;9.70;;;7.50;;
15192;SDS011;7697;51.630;7.484;2023-04-06T00:40:10;9.00;;;6.33;;
15192;SDS011;7697;51.630;7.484;2023-04-06T00:45:14;8.20;;;6.57;;
15192;SDS011;7697;51.630;7.484;2023-04-06T00:50:16;9.60;;;7.50;;
15192;SDS011;7697;51.630;7.484;2023-04-06T00:55:18;10.07;;;7.23;;
15192;SDS011;7697;51.630;7.484;2023-04-06T01:00:21;9.60;;;7.77;;
15192;SDS011;7697;51.630;7.484;2023-04-06T01:05:24;10.63;;;7.20;;
15192;SDS011;7697;51.630;7.484;2023-04-06T01:10:26;10.20;;;7.40;;
15192;SDS011;7697;51.630;7.484;2023-04-06T01:15:31;9.47;;;7.20;;
15192;SDS011;7697;51.630;7.484;2023-04-06T01:20:35;7.80;;;6.40;;
15192;SDS011;7697;51.630;7.484;2023-04-06T01:25:38;8.40;;;6.50;;
15192;SDS011;7697;51.630;7.484;2023-04-06T01:30:40;9.13;;;6.90;;
15192;SDS011;7697;51.630;7.484;2023-04-06T01:35:42;8.77;;;6.17;;
15192;SDS011;7697;51.630;7.484;2023-04-06T01:40:45;10.17;;;6.37;;
15192;SDS011;7697;51.630;7.484;2023-04-06T01:45:47;10.73;;;7.77;;
15192;SDS011;7697;51.630;7.484;2023-04-06T01:50:49;8.97;;;7.00;;
15192;SDS011;7697;51.630;7.484;2023-04-06T01:55:52;8.57;;;6.93;;
15192;SDS011;7697;51.630;7.484;2023-04-06T02:00:54;8.90;;;7.20;;
15192;SDS011;7697;51.630;7.484;2023-04-06T02:05:56;10.17;;;7.20;;
15192;SDS011;7697;51.630;7.484;2023-04-06T02:10:59;8.90;;;6.77;;
15192;SDS011;7697;51.630;7.484;2023-04-06T02:16:01;9.57;;;7.30;;
15192;SDS011;7697;51.630;7.484;2023-04-06T02:21:03;9.37;;;7.30;;
15192;SDS011;7697;51.630;7.484;2023-04-06T02:26:06;8.73;;;6.73;;
15192;SDS011;7697;51.630;7.484;2023-04-06T02:31:08;8.77;;;6.53;;
15192;SDS011;7697;51.630;7.484;2023-04-06T02:36:11;9.23;;;7.00;;
15192;SDS011;7697;51.630;7.484;2023-04-06T02:41:14;9.70;;;6.93;;
15192;SDS011;7697;51.630;7.484;2023-04-06T02:46:16;9.33;;;7.10;;
15192;SDS011;7697;51.630;7.484;2023-04-06T02:51:19;10.93;;;7.47;;
15192;SDS011;7697;51.630;7.484;2023-04-06T02:56:22;8.63;;;6.67;;
15192;SDS011;7697;51.630;7.484;2023-04-06T03:01:24;9.87;;;7.20;;
15192;SDS011;7697;51.630;7.484;2023-04-06T03:06:26;8.90;;;6.67;;
15192;SDS011;7697;51.630;7.484;2023-04-06T03:11:29;9.30;;;7.03;;
15192;SDS011;7697;51.630;7.484;2023-04-06T03:16:31;9.87;;;7.40;;
15192;SDS011;7697;51.630;7.484;2023-04-06T03:21:33;10.23;;;7.30;;
15192;SDS011;7697;51.630;7.484;2023-04-06T03:26:36;10.80;;;6.70;;
15192;SDS011;7697;51.630;7.484;2023-04-06T03:31:38;8.63;;;7.10;;
15192;SDS011;7697;51.630;7.484;2023-04-06T03:36:40;9.30;;;6.90;;
15192;SDS011;7697;51.630;7.484;2023-04-06T03:41:44;9.70;;;7.63;;
15192;SDS011;7697;51.630;7.484;2023-04-06T03:46:46;10.03;;;7.07;;
15192;SDS011;7697;51.630;7.484;2023-04-06T03:51:48;10.47;;;7.27;;
15192;SDS011;7697;51.630;7.484;2023-04-06T03:56:51;8.63;;;6.83;;
15192;SDS011;7697;51.630;7.484;2023-04-06T04:01:53;9.83;;;7.47;;
15192;SDS011;7697;51.630;7.484;2023-04-06T04:06:55;9.50;;;7.47;;
15192;SDS011;7697;51.630;7.484;2023-04-06T04:11:58;9.27;;;7.10;;
15192;SDS011;7697;51.630;7.484;2023-04-06T04:17:00;10.53;;;8.33;;
15192;SDS011;7697;51.630;7.484;2023-04-06T04:22:02;12.77;;;8.27;;
15192;SDS011;7697;51.630;7.484;2023-04-06T04:27:06;9.00;;;7.43;;
15192;SDS011;7697;51.630;7.484;2023-04-06T04:32:08;10.97;;;7.50;;
15192;SDS011;7697;51.630;7.484;2023-04-06T04:37:10;10.70;;;7.80;;
15192;SDS011;7697;51.630;7.484;2023-04-06T04:42:13;13.87;;;9.17;;
15192;SDS011;7697;51.630;7.484;2023-04-06T04:47:15;13.90;;;9.17;;
15192;SDS011;7697;51.630;7.484;2023-04-06T04:52:17;10.93;;;8.63;;
15192;SDS011;7697;51.630;7.484;2023-04-06T04:57:21;11.93;;;8.07;;
15192;SDS011;7697;51.630;7.484;2023-04-06T05:02:23;10.73;;;7.67;;
15192;SDS011;7697;51.630;7.484;2023-04-06T05:07:25;8.63;;;7.23;;
15192;SDS011;7697;51.630;7.484;2023-04-06T05:12:29;8.90;;;6.93;;
15192;SDS011;7697;51.630;7.484;2023-04-06T05:17:31;10.83;;;7.23;;
15192;SDS011;7697;51.630;7.484;2023-04-06T05:22:33;11.43;;;7.90;;
15192;SDS011;7697;51.630;7.484;2023-04-06T05:27:36;11.30;;;8.50;;
15192;SDS011;7697;51.630;7.484;2023-04-06T05:32:39;10.80;;;7.87;;
15192;SDS011;7697;51.630;7.484;2023-04-06T05:37:44;13.67;;;9.60;;
15192;SDS011;7697;51.630;7.484;2023-04-06T05:42:47;11.67;;;8.13;;
15192;SDS011;7697;51.630;7.484;2023-04-06T05:47:49;10.47;;;8.10;;
15192;SDS011;7697;51.630;7.484;2023-04-06T05:52:51;9.97;;;7.77;;
15192;SDS011;7697;51.630;7.484;2023-04-06T05:57:55;10.17;;;7.27;;
15192;SDS011;7697;51.630;7.484;2023-04-06T06:02:57;9.10;;;7.50;;
15192;SDS011;7697;51.630;7.484;2023-04-06T06:08:00;10.50;;;7.60;;
15192;SDS011;7697;51.630;7.484;2023-04-06T06:13:03;9.50;;;7.03;;
15192;SDS011;7697;51.630;7.484;2023-04-06T06:18:05;11.00;;;8.30;;
15192;SDS011;7697;51.630;7.484;2023-04-06T06:23:07;11.27;;;8.50;;
15192;SDS011;7697;51.630;7.484;2023-04-06T06:28:11;11.53;;;8.70;;
15192;SDS011;7697;51.630;7.484;2023-04-06T06:33:13;12.27;;;8.20;;
15192;SDS011;7697;51.630;7.484;2023-04-06T06:38:15;12.07;;;8.17;;
15192;SDS011;7697;51.630;7.484;2023-04-06T06:43:18;10.93;;;8.47;;
15192;SDS011;7697;51.630;7.484;2023-04-06T06:48:20;9.50;;;8.27;;
15192;SDS011;7697;51.630;7.484;2023-04-06T06:53:22;11.37;;;8.10;;
15192;SDS011;7697;51.630;7.484;2023-04-06T06:58:26;12.93;;;8.50;;
15192;SDS011;7697;51.630;7.484;2023-04-06T07:03:28;12.37;;;8.50;;
15192;SDS011;7697;51.630;7.484;2023-04-06T07:08:30;14.17;;;8.87;;
15192;SDS011;7697;51.630;7.484;2023-04-06T07:13:33;11.17;;;8.17;;
15192;SDS011;7697;51.630;7.484;2023-04-06T07:18:35;10.57;;;7.90;;
15192;SDS011;7697;51.630;7.484;2023-04-06T07:23:37;11.50;;;8.57;;
15192;SDS011;7697;51.630;7.484;2023-04-06T07:28:40;14.23;;;8.70;;
15192;SDS011;7697;51.630;7.484;2023-04-06T07:33:42;10.70;;;7.30;;
15192;SDS011;7697;51.630;7.484;2023-04-06T07:38:45;10.80;;;7.33;;
15192;SDS011;7697;51.630;7.484;2023-04-06T07:43:48;10.43;;;7.27;;
15192;SDS011;7697;51.630;7.484;2023-04-06T07:48:50;8.77;;;6.17;;
15192;SDS011;7697;51.630;7.484;2023-04-06T07:53:52;9.00;;;5.30;;
15192;SDS011;7697;51.630;7.484;2023-04-06T07:58:56;8.70;;;5.67;;
15192;SDS011;7697;51.630;7.484;2023-04-06T08:03:58;8.13;;;5.53;;
15192;SDS011;7697;51.630;7.484;2023-04-06T08:09:02;7.17;;;5.30;;
15192;SDS011;7697;51.630;7.484;2023-04-06T08:14:05;5.90;;;5.07;;
15192;SDS011;7697;51.630;7.484;2023-04-06T08:19:07;6.32;;;5.18;;
15192;SDS011;7697;51.630;7.484;2023-04-06T08:24:10;9.02;;;5.35;;
15192;SDS011;7697;51.630;7.484;2023-04-06T08:29:13;6.95;;;5.68;;
15192;SDS011;7697;51.630;7.484;2023-04-06T08:34:16;5.93;;;4.97;;
15192;SDS011;7697;51.630;7.484;2023-04-06T08:39:18;9.57;;;6.53;;
15192;SDS011;7697;51.630;7.484;2023-04-06T08:44:26;7.57;;;6.30;;
15192;SDS011;7697;51.630;7.484;2023-04-06T08:49:28;8.88;;;6.82;;
15192;SDS011;7697;51.630;7.484;2023-04-06T08:54:30;9.80;;;7.22;;
15192;SDS011;7697;51.630;7.484;2023-04-06T08:59:34;9.45;;;7.68;;
15192;SDS011;7697;51.630;7.484;2023-04-06T09:04:38;10.77;;;7.63;;
15192;SDS011;7697;51.630;7.484;2023-04-06T09:09:40;9.55;;;7.50;;
15192;SDS011;7697;51.630;7.484;2023-04-06T09:14:49;9.95;;;7.13;;
15192;SDS011;7697;51.630;7.484;2023-04-06T09:19:51;10.60;;;8.13;;
15192;SDS011;7697;51.630;7.484;2023-04-06T09:24:53;10.73;;;7.97;;
15192;SDS011;7697;51.630;7.484;2023-04-06T09:30:03;10.93;;;8.60;;
15192;SDS011;7697;51.630;7.484;2023-04-06T09:35:08;11.68;;;9.32;;
15192;SDS011;7697;51.630;7.484;2023-04-06T09:40:11;12.07;;;9.40;;
15192;SDS011;7697;51.630;7.484;2023-04-06T09:45:18;11.05;;;8.40;;
15192;SDS011;7697;51.630;7.484;2023-04-06T09:50:20;11.20;;;8.82;;
15192;SDS011;7697;51.630;7.484;2023-04-06T09:55:26;12.85;;;10.05;;
15192;SDS011;7697;51.630;7.484;2023-04-06T10:00:48;11.10;;;8.52;;
15192;SDS011;7697;51.630;7.484;2023-04-06T10:05:57;13.80;;;10.45;;
15192;SDS011;7697;51.630;7.484;2023-04-06T10:11:01;9.30;;;8.30;;
15192;SDS011;7697;51.630;7.484;2023-04-06T10:16:05;13.70;;;9.55;;
15192;SDS011;7697;51.630;7.484;2023-04-06T10:21:11;10.45;;;8.05;;
15192;SDS011;7697;51.630;7.484;2023-04-06T10:26:19;10.13;;;8.68;;
15192;SDS011;7697;51.630;7.484;2023-04-06T10:31:27;10.27;;;8.32;;
15192;SDS011;7697;51.630;7.484;2023-04-06T10:36:32;11.52;;;8.55;;
15192;SDS011;7697;51.630;7.484;2023-04-06T10:41:36;10.52;;;8.13;;
15192;SDS011;7697;51.630;7.484;2023-04-06T10:46:51;12.82;;;9.52;;
15192;SDS011;7697;51.630;7.484;2023-04-06T10:51:55;12.05;;;9.55;;
15192;SDS011;7697;51.630;7.484;2023-04-06T10:56:57;16.42;;;11.73;;
15192;SDS011;7697;51.630;7.484;2023-04-06T11:02:02;12.65;;;10.00;;
15192;SDS011;7697;51.630;7.484;2023-04-06T11:07:04;14.07;;;11.57;;
15192;SDS011;7697;51.630;7.484;2023-04-06T11:12:06;17.05;;;12.32;;
15192;SDS011;7697;51.630;7.484;2023-04-06T11:17:09;16.13;;;11.43;;
15192;SDS011;7697;51.630;7.484;2023-04-06T11:22:11;12.43;;;10.05;;
15192;SDS011;7697;51.630;7.484;2023-04-06T11:27:13;12.88;;;10.18;;
15192;SDS011;7697;51.630;7.484;2023-04-06T11:32:21;14.25;;;9.63;;
15192;SDS011;7697;51.630;7.484;2023-04-06T11:37:25;12.82;;;11.45;;
15192;SDS011;7697;51.630;7.484;2023-04-06T11:42:28;11.95;;;10.65;;
15192;SDS011;7697;51.630;7.484;2023-04-06T11:47:33;12.45;;;11.05;;
15192;SDS011;7697;51.630;7.484;2023-04-06T11:52:36;13.35;;;11.60;;
15192;SDS011;7697;51.630;7.484;2023-04-06T11:57:38;14.07;;;11.20;;
15192;SDS011;7697;51.630;7.484;2023-04-06T12:02:44;13.40;;;11.07;;
15192;SDS011;7697;51.630;7.484;2023-04-06T12:07:47;14.30;;;11.55;;
15192;SDS011;7697;51.630;7.484;2023-04-06T12:12:49;12.63;;;10.43;;
15192;SDS011;7697;51.630;7.484;2023-04-06T12:17:52;15.82;;;12.98;;
15192;SDS011;7697;51.630;7.484;2023-04-06T12:22:54;14.82;;;12.63;;
15192;SDS011;7697;51.630;7.484;2023-04-06T12:27:56;15.35;;;12.45;;
15192;SDS011;7697;51.630;7.484;2023-04-06T12:32:59;15.75;;;12.20;;
15192;SDS011;7697;51.630;7.484;2023-04-06T12:38:01;14.35;;;12.85;;
15192;SDS011;7697;51.630;7.484;2023-04-06T12:43:03;14.07;;;12.23;;
15192;SDS011;7697;51.630;7.484;2023-04-06T12:48:07;14.13;;;12.35;;
15192;SDS011;7697;51.630;7.484;2023-04-06T12:53:09;15.02;;;12.02;;
15192;SDS011;7697;51.630;7.484;2023-04-06T12:58:11;16.42;;;13.40;;
15192;SDS011;7697;51.630;7.484;2023-04-06T13:03:14;16.58;;;12.77;;
15192;SDS011;7697;51.630;7.484;2023-04-06T13:08:17;14.27;;;11.75;;
15192;SDS011;7697;51.630;7.484;2023-04-06T13:13:22;16.58;;;12.70;;
15192;SDS011;7697;51.630;7.484;2023-04-06T13:18:26;15.73;;;10.95;;
15192;SDS011;7697;51.630;7.484;2023-04-06T13:23:28;11.98;;;10.63;;
15192;SDS011;7697;51.630;7.484;2023-04-06T13:28:31;10.95;;;8.85;;
15192;SDS011;7697;51.630;7.484;2023-04-06T13:33:35;13.30;;;9.77;;
15192;SDS011;7697;51.630;7.484;2023-04-06T13:38:37;14.13;;;10.27;;
15192;SDS011;7697;51.630;7.484;2023-04-06T13:43:40;12.65;;;9.60;;
15192;SDS011;7697;51.630;7.484;2023-04-06T13:48:43;15.50;;;11.35;;
15192;SDS011;7697;51.630;7.484;2023-04-06T13:53:48;13.05;;;10.48;;
15192;SDS011;7697;51.630;7.484;2023-04-06T13:58:53;10.80;;;9.32;;
15192;SDS011;7697;51.630;7.484;2023-04-06T14:03:58;11.93;;;9.10;;
15192;SDS011;7697;51.630;7.484;2023-04-06T14:09:00;10.35;;;9.13;;
15192;SDS011;7697;51.630;7.484;2023-04-06T14:14:01;12.10;;;9.48;;
15192;SDS011;7697;51.630;7.484;2023-04-06T14:19:05;11.35;;;8.75;;
15192;SDS011;7697;51.630;7.484;2023-04-06T14:24:07;11.13;;;8.90;;
15192;SDS011;7697;51.630;7.484;2023-04-06T14:29:10;13.52;;;10.43;;
15192;SDS011;7697;51.630;7.484;2023-04-06T14:34:13;12.93;;;9.38;;
15192;SDS011;7697;51.630;7.484;2023-04-06T14:39:15;8.45;;;7.00;;
15192;SDS011;7697;51.630;7.484;2023-04-06T14:44:17;5.25;;;4.75;;
15192;SDS011;7697;51.630;7.484;2023-04-06T14:49:20;5.20;;;4.40;;
15192;SDS011;7697;51.630;7.484;2023-04-06T14:54:23;11.27;;;8.05;;
15192;SDS011;7697;51.630;7.484;2023-04-06T14:59:25;8.52;;;6.53;;
15192;SDS011;7697;51.630;7.484;2023-04-06T15:04:29;9.13;;;6.68;;
15192;SDS011;7697;51.630;7.484;2023-04-06T15:09:31;7.32;;;6.20;;
15192;SDS011;7697;51.630;7.484;2023-04-06T15:14:32;10.45;;;8.25;;
15192;SDS011;7697;51.630;7.484;2023-04-06T15:19:36;12.05;;;8.88;;
15192;SDS011;7697;51.630;7.484;2023-04-06T15:24:38;9.00;;;7.57;;
15192;SDS011;7697;51.630;7.484;2023-04-06T15:29:40;9.82;;;7.22;;
15192;SDS011;7697;51.630;7.484;2023-04-06T15:34:44;8.60;;;7.20;;
15192;SDS011;7697;51.630;7.484;2023-04-06T15:39:45;11.45;;;8.05;;
15192;SDS011;7697;51.630;7.484;2023-04-06T15:44:47;10.90;;;8.43;;
15192;SDS011;7697;51.630;7.484;2023-04-06T15:49:50;12.02;;;9.10;;
15192;SDS011;7697;51.630;7.484;2023-04-06T15:54:52;10.25;;;8.55;;
15192;SDS011;7697;51.630;7.484;2023-04-06T15:59:54;10.13;;;7.85;;
15192;SDS011;7697;51.630;7.484;2023-04-06T16:04:57;13.98;;;9.55;;
15192;SDS011;7697;51.630;7.484;2023-04-06T16:10:01;14.60;;;10.75;;
15192;SDS011;7697;51.630;7.484;2023-04-06T16:15:04;12.07;;;9.20;;
15192;SDS011;7697;51.630;7.484;2023-04-06T16:20:09;14.10;;;9.65;;
15192;SDS011;7697;51.630;7.484;2023-04-06T16:25:12;8.38;;;7.05;;
15192;SDS011;7697;51.630;7.484;2023-04-06T16:30:16;9.10;;;7.55;;
15192;SDS011;7697;51.630;7.484;2023-04-06T16:35:19;8.95;;;6.32;;
15192;SDS011;7697;51.630;7.484;2023-04-06T16:40:22;6.70;;;6.00;;
15192;SDS011;7697;51.630;7.484;2023-04-06T16:45:24;6.90;;;6.20;;
15192;SDS011;7697;51.630;7.484;2023-04-06T16:50:27;7.00;;;5.85;;
15192;SDS011;7697;51.630;7.484;2023-04-06T16:55:29;5.40;;;4.68;;
15192;SDS011;7697;51.630;7.484;2023-04-06T17:00:31;6.35;;;5.65;;
15192;SDS011;7697;51.630;7.484;2023-04-06T17:05:34;6.88;;;5.32;;
15192;SDS011;7697;51.630;7.484;2023-04-06T17:10:36;6.47;;;5.32;;
15192;SDS011;7697;51.630;7.484;2023-04-06T17:15:38;7.00;;;5.35;;
15192;SDS011;7697;51.630;7.484;2023-04-06T17:20:43;6.88;;;5.00;;
15192;SDS011;7697;51.630;7.484;2023-04-06T17:25:46;6.22;;;4.88;;
15192;SDS011;7697;51.630;7.484;2023-04-06T17:30:50;6.53;;;5.22;;
15192;SDS011;7697;51.630;7.484;2023-04-06T17:35:53;6.70;;;5.40;;
15192;SDS011;7697;51.630;7.484;2023-04-06T17:40:55;5.97;;;5.25;;
15192;SDS011;7697;51.630;7.484;2023-04-06T17:45:57;7.57;;;6.88;;
15192;SDS011;7697;51.630;7.484;2023-04-06T17:51:00;6.80;;;5.47;;
15192;SDS011;7697;51.630;7.484;2023-04-06T17:56:02;7.57;;;6.50;;
15192;SDS011;7697;51.630;7.484;2023-04-06T18:01:04;8.38;;;6.88;;
15192;SDS011;7697;51.630;7.484;2023-04-06T18:06:09;9.57;;;7.75;;
15192;SDS011;7697;51.630;7.484;2023-04-06T18:11:15;7.50;;;6.50;;
15192;SDS011;7697;51.630;7.484;2023-04-06T18:16:18;7.90;;;6.63;;
15192;SDS011;7697;51.630;7.484;2023-04-06T18:21:21;7.75;;;6.10;;
15192;SDS011;7697;51.630;7.484;2023-04-06T18:26:23;9.05;;;7.53;;
15192;SDS011;7697;51.630;7.484;2023-04-06T18:31:25;10.43;;;7.55;;
15192;SDS011;7697;51.630;7.484;2023-04-06T18:36:29;7.93;;;6.93;;
15192;SDS011;7697;51.630;7.484;2023-04-06T18:41:31;9.10;;;6.85;;
15192;SDS011;7697;51.630;7.484;2023-04-06T18:46:33;8.52;;;6.10;;
15192;SDS011;7697;51.630;7.484;2023-04-06T18:51:36;6.28;;;5.63;;
15192;SDS011;7697;51.630;7.484;2023-04-06T18:56:40;7.13;;;6.00;;
15192;SDS011;7697;51.630;7.484;2023-04-06T19:01:42;7.90;;;6.50;;
15192;SDS011;7697;51.630;7.484;2023-04-06T19:06:47;7.93;;;6.65;;
15192;SDS011;7697;51.630;7.484;2023-04-06T19:11:48;10.90;;;8.07;;
15192;SDS011;7697;51.630;7.484;2023-04-06T19:16:51;9.32;;;7.70;;
15192;SDS011;7697;51.630;7.484;2023-04-06T19:21:57;10.40;;;7.22;;
15192;SDS011;7697;51.630;7.484;2023-04-06T19:26:59;9.73;;;7.63;;
15192;SDS011;7697;51.630;7.484;2023-04-06T19:32:01;11.93;;;8.13;;
15192;SDS011;7697;51.630;7.484;2023-04-06T19:37:04;10.23;;;8.65;;
15192;SDS011;7697;51.630;7.484;2023-04-06T19:42:06;11.18;;;8.23;;
15192;SDS011;7697;51.630;7.484;2023-04-06T19:47:08;12.65;;;9.45;;
15192;SDS011;7697;51.630;7.484;2023-04-06T19:52:12;10.35;;;7.75;;
15192;SDS011;7697;51.630;7.484;2023-04-06T19:57:14;10.07;;;7.72;;
15192;SDS011;7697;51.630;7.484;2023-04-06T20:02:16;10.75;;;8.00;;
15192;SDS011;7697;51.630;7.484;2023-04-06T20:07:20;9.85;;;7.80;;
15192;SDS011;7697;51.630;7.484;2023-04-06T20:12:21;10.13;;;8.10;;
15192;SDS011;7697;51.630;7.484;2023-04-06T20:17:23;9.35;;;8.13;;
15192;SDS011;7697;51.630;7.484;2023-04-06T20:22:26;9.60;;;7.97;;
15192;SDS011;7697;51.630;7.484;2023-04-06T20:27:28;10.05;;;8.18;;
15192;SDS011;7697;51.630;7.484;2023-04-06T20:32:30;10.48;;;8.00;;
15192;SDS011;7697;51.630;7.484;2023-04-06T20:37:34;8.82;;;7.15;;
15192;SDS011;7697;51.630;7.484;2023-04-06T20:42:36;8.30;;;7.10;;
15192;SDS011;7697;51.630;7.484;2023-04-06T20:47:38;9.10;;;7.55;;
15192;SDS011;7697;51.630;7.484;2023-04-06T20:52:41;9.32;;;7.15;;
15192;SDS011;7697;51.630;7.484;2023-04-06T20:57:43;9.35;;;7.47;;
15192;SDS011;7697;51.630;7.484;2023-04-06T21:02:45;7.90;;;6.07;;
15192;SDS011;7697;51.630;7.484;2023-04-06T21:07:48;6.50;;;5.80;;
15192;SDS011;7697;51.630;7.484;2023-04-06T21:12:50;7.20;;;5.78;;
15192;SDS011;7697;51.630;7.484;2023-04-06T21:17:52;6.85;;;6.15;;
15192;SDS011;7697;51.630;7.484;2023-04-06T21:22:55;7.25;;;6.13;;
15192;SDS011;7697;51.630;7.484;2023-04-06T21:27:57;6.07;;;5.47;;
15192;SDS011;7697;51.630;7.484;2023-04-06T21:32:58;6.22;;;5.03;;
15192;SDS011;7697;51.630;7.484;2023-04-06T21:38:01;5.82;;;5.22;;
15192;SDS011;7697;51.630;7.484;2023-04-06T21:43:03;6.00;;;5.40;;
15192;SDS011;7697;51.630;7.484;2023-04-06T21:48:05;5.95;;;5.35;;
15192;SDS011;7697;51.630;7.484;2023-04-06T21:53:08;6.65;;;5.45;;
15192;SDS011;7697;51.630;7.484;2023-04-06T21:58:10;6.05;;;4.55;;
15192;SDS011;7697;51.630;7.484;2023-04-06T22:03:12;6.07;;;5.47;;
15192;SDS011;7697;51.630;7.484;2023-04-06T22:08:15;5.00;;;4.50;;
15192;SDS011;7697;51.630;7.484;2023-04-06T22:13:17;5.15;;;4.65;;
15192;SDS011;7697;51.630;7.484;2023-04-06T22:18:19;6.13;;;5.00;;
15192;SDS011;7697;51.630;7.484;2023-04-06T22:23:22;5.50;;;4.90;;
15192;SDS011;7697;51.630;7.484;2023-04-06T22:28:24;4.93;;;4.43;;
15192;SDS011;7697;51.630;7.484;2023-04-06T22:33:26;5.82;;;4.45;;
15192;SDS011;7697;51.630;7.484;2023-04-06T22:38:29;5.03;;;4.30;;
15192;SDS011;7697;51.630;7.484;2023-04-06T22:43:31;4.90;;;4.40;;
15192;SDS011;7697;51.630;7.484;2023-04-06T22:48:32;5.53;;;3.83;;
15192;SDS011;7697;51.630;7.484;2023-04-06T22:53:36;4.23;;;3.83;;
15192;SDS011;7697;51.630;7.484;2023-04-06T22:58:37;4.25;;;3.85;;
15192;SDS011;7697;51.630;7.484;2023-04-06T23:03:39;4.05;;;3.65;;
15192;SDS011;7697;51.630;7.484;2023-04-06T23:08:42;4.18;;;3.78;;
15192;SDS011;7697;51.630;7.484;2023-04-06T23:13:44;3.83;;;3.47;;
15192;SDS011;7697;51.630;7.484;2023-04-06T23:18:46;3.97;;;3.60;;
15192;SDS011;7697;51.630;7.484;2023-04-06T23:23:49;3.70;;;3.40;;
15192;SDS011;7697;51.630;7.484;2023-04-06T23:28:51;4.68;;;3.53;;
15192;SDS011;7697;51.630;7.484;2023-04-06T23:33:53;4.13;;;3.72;;
15192;SDS011;7697;51.630;7.484;2023-04-06T23:38:56;5.38;;;4.03;;
15192;SDS011;7697;51.630;7.484;2023-04-06T23:43:59;3.60;;;3.30;;
15192;SDS011;7697;51.630;7.484;2023-04-06T23:49:01;4.43;;;4.00;;
15192;SDS011;7697;51.630;7.484;2023-04-06T23:54:05;4.22;;;3.80;;
15192;SDS011;7697;51.630;7.484;2023-04-06T23:59:06;4.00;;;3.60;;
